Time;durP1;ratioP1;P1;durP2;ratioP2;P2;SDS_P1;SDS_P2;PMS_P1;PMS_P2;Temp;Humidity;BMP_temperature;BMP_pressure;BME280_temperature;BME280_humidity;BME280_pressure;Samples;Min_cycle;Max_cycle;Signal;HPM_P1;HPM_P2
2022/11/22 00:00:17;;;;;;;6.50;3.55;;;;;;;-2.24;100.00;98147.25;1784085;79;21034;-75
2022/11/22 00:02:43;;;;;;;7.53;4.10;;;;;;;-2.25;100.00;98142.94;1779320;79;21497;-75
2022/11/22 00:05:10;;;;;;;7.58;4.30;;;;;;;-2.25;100.00;98132.19;1788919;79;21117;-75
2022/11/22 00:07:37;;;;;;;6.90;4.05;;;;;;;-2.25;100.00;98140.79;1793248;79;20877;-75
2022/11/22 00:10:06;;;;;;;6.62;4.00;;;;;;;-2.30;100.00;98146.96;1799599;79;21000;-75
2022/11/22 00:12:34;;;;;;;7.83;5.05;;;;;;;-2.31;100.00;98160.13;1796571;79;21532;-76
2022/11/22 00:15:03;;;;;;;8.08;4.33;;;;;;;-2.34;100.00;98168.22;1789370;79;20964;-75
2022/11/22 00:17:31;;;;;;;7.67;4.42;;;;;;;-2.34;100.00;98168.22;1795241;79;21160;-75
2022/11/22 00:19:57;;;;;;;8.10;4.62;;;;;;;-2.35;100.00;98170.64;1790845;79;20923;-75
2022/11/22 00:22:24;;;;;;;6.50;4.30;;;;;;;-2.32;100.00;98163.12;1793287;79;20889;-75
2022/11/22 00:24:52;;;;;;;8.33;4.53;;;;;;;-2.33;100.00;98151.56;1789642;79;20995;-74
2022/11/22 00:27:20;;;;;;;8.60;4.80;;;;;;;-2.38;100.00;98147.52;1788129;79;20978;-74
2022/11/22 00:29:47;;;;;;;8.73;5.70;;;;;;;-2.39;100.00;98151.28;1791092;79;21534;-75
2022/11/22 00:32:14;;;;;;;8.00;4.28;;;;;;;-2.40;100.00;98149.66;1791961;79;21086;-74
2022/11/22 00:34:40;;;;;;;8.30;4.87;;;;;;;-2.42;100.00;98150.46;1783755;79;21434;-75
2022/11/22 00:37:06;;;;;;;6.67;4.50;;;;;;;-2.43;100.00;98154.22;1780263;79;20976;-75
2022/11/22 00:39:33;;;;;;;8.50;4.37;;;;;;;-2.44;100.00;98156.10;1794651;79;20959;-75
2022/11/22 00:41:59;;;;;;;10.00;5.42;;;;;;;-2.47;100.00;98155.83;1792719;79;21153;-75
2022/11/22 00:44:26;;;;;;;10.72;5.87;;;;;;;-2.50;100.00;98149.64;1795814;79;20912;-74
2022/11/22 00:46:53;;;;;;;9.45;4.87;;;;;;;-2.53;100.00;98152.31;1801146;79;20960;-75
2022/11/22 00:49:20;;;;;;;7.92;5.40;;;;;;;-2.54;100.00;98139.14;1790826;79;21427;-74
2022/11/22 00:51:46;;;;;;;10.40;5.55;;;;;;;-2.56;100.00;98137.26;1794572;79;20920;-74
2022/11/22 00:54:13;;;;;;;8.78;4.83;;;;;;;-2.53;100.00;98140.76;1782939;79;21172;-74
2022/11/22 00:56:41;;;;;;;11.08;6.42;;;;;;;-2.53;100.00;98147.48;1784246;79;20981;-74
2022/11/22 00:59:07;;;;;;;16.75;7.50;;;;;;;-2.55;100.00;98151.77;1783248;79;21430;-74
2022/11/22 01:01:34;;;;;;;14.90;6.50;;;;;;;-2.57;100.00;98163.32;1777784;79;21064;-74
2022/11/22 01:04:01;;;;;;;11.03;6.53;;;;;;;-2.58;100.00;98169.77;1782721;79;20990;-74
2022/11/22 01:06:28;;;;;;;11.88;6.45;;;;;;;-2.58;100.00;98172.98;1794012;79;21562;-74
2022/11/22 01:08:54;;;;;;;9.15;6.15;;;;;;;-2.58;100.00;98171.11;1801444;79;20960;-75
2022/11/22 01:11:21;;;;;;;9.55;5.35;;;;;;;-2.58;100.00;98188.57;1794589;79;21510;-75
2022/11/22 01:13:48;;;;;;;12.15;6.62;;;;;;;-2.59;100.00;98191.52;1783850;79;20980;-76
2022/11/22 01:16:14;;;;;;;10.08;6.60;;;;;;;-2.59;100.00;98190.17;1789453;79;20920;-75
2022/11/22 01:18:41;;;;;;;12.18;6.35;;;;;;;-2.56;100.00;98194.49;1793891;79;21185;-75
2022/11/22 01:21:08;;;;;;;10.30;6.45;;;;;;;-2.57;100.00;98190.72;1787613;79;21073;-75
2022/11/22 01:23:35;;;;;;;12.60;6.85;;;;;;;-2.60;100.00;98189.91;1792264;79;21085;-75
2022/11/22 01:26:05;;;;;;;12.25;7.15;;;;;;;-2.59;100.00;98186.95;1791727;79;21019;-75
2022/11/22 01:28:32;;;;;;;11.50;7.00;;;;;;;-2.61;100.00;98189.09;1784573;79;21030;-75
2022/11/22 01:31:00;;;;;;;13.35;7.47;;;;;;;-2.62;100.00;98192.05;1794014;79;21147;-75
2022/11/22 01:33:27;;;;;;;15.08;6.90;;;;;;;-2.61;100.00;98197.16;1796393;79;21509;-75
2022/11/22 01:35:57;;;;;;;13.53;7.17;;;;;;;-2.63;100.00;98191.23;1799938;79;20890;-75
2022/11/22 01:38:23;;;;;;;12.00;7.28;;;;;;;-2.67;100.00;98208.95;1780731;79;21047;-75
2022/11/22 01:40:50;;;;;;;13.60;8.15;;;;;;;-2.68;100.00;98204.66;1797593;79;21381;-75
2022/11/22 01:43:20;;;;;;;15.00;7.70;;;;;;;-2.67;100.00;98209.77;1787887;79;21760;-74
2022/11/22 01:45:58;;;;;;;13.13;7.65;;;;;;;-2.69;100.00;98206.53;1778747;79;21121;-74
2022/11/22 01:48:44;;;;;;;12.70;7.10;;;;;;;-2.71;100.00;98207.33;1797559;79;20924;-74
2022/11/22 01:51:19;;;;;;;12.60;6.80;;;;;;;-2.70;100.00;98214.85;1760387;79;20876;-73
2022/11/22 01:53:46;;;;;;;11.33;7.05;;;;;;;-2.75;100.00;98221.01;1784898;79;20911;-74
2022/11/22 01:56:14;;;;;;;12.18;7.65;;;;;;;-2.75;100.00;98221.01;1796390;79;21120;-74
2022/11/22 01:58:42;;;;;;;11.73;7.08;;;;;;;-2.75;100.00;98218.86;1795922;79;20884;-75
2022/11/22 02:01:09;;;;;;;12.60;6.58;;;;;;;-2.76;100.00;98218.05;1799221;79;20951;-75
2022/11/22 02:03:37;;;;;;;11.95;6.35;;;;;;;-2.76;100.00;98214.02;1795236;79;20924;-74
2022/11/22 02:06:05;;;;;;;12.33;7.10;;;;;;;-2.76;100.00;98201.13;1789378;79;20971;-75
2022/11/22 02:09:03;;;;;;;13.18;7.33;;;;;;;-2.75;100.00;98202.73;1788988;79;21126;-74
2022/11/22 02:11:31;;;;;;;10.93;6.10;;;;;;;-2.76;100.00;98211.33;1789442;79;21956;-74
2022/11/22 02:13:58;;;;;;;13.62;6.60;;;;;;;-2.80;100.00;98210.23;1786306;79;20848;-74
2022/11/22 02:16:26;;;;;;;12.18;7.15;;;;;;;-2.81;100.00;98211.84;1788256;79;20955;-74
2022/11/22 02:18:52;;;;;;;11.78;7.72;;;;;;;-2.82;100.00;98220.44;1770426;79;20942;-76
2022/11/22 02:21:19;;;;;;;11.48;6.60;;;;;;;-2.82;100.00;98231.17;1786635;79;21451;-74
2022/11/22 02:23:55;;;;;;;11.60;6.67;;;;;;;-2.82;100.00;98231.71;1788867;79;20971;-73
2022/11/22 02:26:26;;;;;;;13.98;7.80;;;;;;;-2.81;100.00;98247.56;1796353;79;20900;-73
2022/11/22 02:28:56;;;;;;;12.07;6.50;;;;;;;-2.80;100.00;98249.19;1803548;79;20963;-74
2022/11/22 02:31:43;;;;;;;12.28;7.08;;;;;;;-2.80;100.00;98252.41;1802812;79;21011;-74
2022/11/22 02:34:10;;;;;;;11.88;6.92;;;;;;;-2.84;100.00;98240.56;1766839;79;21125;-74
2022/11/22 02:36:48;;;;;;;11.33;5.85;;;;;;;-2.86;100.00;98248.88;1788982;79;21079;-74
2022/11/22 02:39:17;;;;;;;11.55;6.58;;;;;;;-2.89;100.00;98261.52;1721293;81;21113;-75
2022/11/22 02:41:44;;;;;;;11.22;6.25;;;;;;;-2.90;100.00;98254.53;1730169;81;21062;-75
2022/11/22 02:44:10;;;;;;;13.22;7.42;;;;;;;-2.90;100.00;98256.41;1785548;79;21454;-75
2022/11/22 02:46:51;;;;;;;10.72;6.75;;;;;;;-2.91;100.00;98258.28;1792458;79;21438;-74
2022/11/22 02:49:20;;;;;;;11.70;6.70;;;;;;;-2.92;100.00;98260.69;1738189;81;20900;-75
2022/11/22 02:51:47;;;;;;;10.45;6.55;;;;;;;-2.92;100.00;98263.37;1782825;79;20897;-75
2022/11/22 02:54:13;;;;;;;8.73;5.17;;;;;;;-2.90;100.00;98267.95;1796647;79;21483;-74
2022/11/22 02:56:41;;;;;;;9.60;6.10;;;;;;;-2.91;100.00;98270.90;1793145;79;21400;-74
2022/11/22 02:59:08;;;;;;;12.93;7.08;;;;;;;-2.95;100.00;98264.43;1789934;79;21143;-74
2022/11/22 03:01:35;;;;;;;11.70;7.00;;;;;;;-3.00;100.00;98261.98;1788611;79;20992;-74
2022/11/22 03:04:02;;;;;;;9.35;5.87;;;;;;;-3.00;100.00;98273.27;1782695;79;20845;-74
2022/11/22 03:06:30;;;;;;;13.50;7.55;;;;;;;-3.03;100.00;98267.88;1781024;79;21018;-74
2022/11/22 03:08:59;;;;;;;12.35;7.10;;;;;;;-3.05;100.00;98271.35;1769934;79;20885;-74
2022/11/22 03:11:25;;;;;;;11.38;7.03;;;;;;;-3.06;100.00;98279.66;1789602;79;21186;-74
2022/11/22 03:13:52;;;;;;;12.40;6.65;;;;;;;-3.05;100.00;98290.67;1792922;79;21427;-75
2022/11/22 03:16:18;;;;;;;13.58;7.12;;;;;;;-3.06;100.00;98289.87;1790493;79;20873;-74
2022/11/22 03:18:45;;;;;;;9.63;5.90;;;;;;;-3.05;100.00;98298.73;1797744;79;20972;-74
2022/11/22 03:21:12;;;;;;;10.80;6.80;;;;;;;-3.04;100.00;98293.64;1792299;80;21038;-75
2022/11/22 03:23:39;;;;;;;11.05;6.30;;;;;;;-3.07;100.00;98293.63;1795148;79;22022;-75
2022/11/22 03:26:11;;;;;;;9.00;6.00;;;;;;;-3.08;100.00;98302.73;1791921;79;20951;-75
2022/11/22 03:28:39;;;;;;;9.83;5.75;;;;;;;-3.10;100.00;98301.37;1784601;79;20935;-74
2022/11/22 03:31:06;;;;;;;12.63;6.72;;;;;;;-3.12;100.00;98299.48;1790350;79;21394;-74
2022/11/22 03:33:36;;;;;;;12.63;7.22;;;;;;;-3.14;100.00;98297.05;1790711;79;21491;-73
2022/11/22 03:36:02;;;;;;;12.07;6.95;;;;;;;-3.15;100.00;98293.28;1787631;79;21083;-75
2022/11/22 03:38:29;;;;;;;12.15;7.15;;;;;;;-3.17;100.00;98289.52;1735152;81;20959;-74
2022/11/22 03:40:56;;;;;;;14.10;7.42;;;;;;;-3.18;100.00;98281.72;1741394;80;20983;-74
2022/11/22 03:43:23;;;;;;;10.85;6.80;;;;;;;-3.19;100.00;98277.42;1738933;80;21051;-73
2022/11/22 03:45:49;;;;;;;13.70;6.90;;;;;;;-3.20;100.00;98281.98;1745507;81;21081;-74
2022/11/22 03:48:16;;;;;;;12.90;6.65;;;;;;;-3.21;100.00;98289.75;1750238;79;21734;-69
2022/11/22 03:50:42;;;;;;;13.88;7.15;;;;;;;-3.20;100.00;98306.67;1691193;83;21007;-75
2022/11/22 03:53:09;;;;;;;10.93;6.55;;;;;;;-3.10;100.00;98310.24;1679931;83;21092;-76
2022/11/22 03:55:36;;;;;;;15.53;7.30;;;;;;;-3.07;100.00;98323.69;1688190;83;20959;-73
2022/11/22 03:58:03;;;;;;;10.72;6.72;;;;;;;-3.09;100.00;98323.13;1690665;83;20888;-74
2022/11/22 04:00:30;;;;;;;12.82;6.15;;;;;;;-3.09;100.00;98327.16;1686721;84;21102;-73
2022/11/22 04:02:56;;;;;;;12.15;6.58;;;;;;;-3.12;100.00;98327.67;1705710;83;20897;-73
2022/11/22 04:05:23;;;;;;;13.38;7.15;;;;;;;-3.17;100.00;98324.95;1703686;83;21043;-78
2022/11/22 04:07:54;;;;;;;14.60;8.48;;;;;;;-3.19;100.00;98328.42;1704063;83;20897;-72
2022/11/22 04:10:24;;;;;;;12.95;7.15;;;;;;;-3.19;100.00;98336.47;1685442;84;20986;-74
2022/11/22 04:12:51;;;;;;;12.37;7.22;;;;;;;-3.20;100.00;98329.48;1696154;83;21762;-76
2022/11/22 04:15:18;;;;;;;16.23;7.90;;;;;;;-3.21;100.00;98336.73;1702087;83;21092;-75
2022/11/22 04:17:44;;;;;;;12.63;7.42;;;;;;;-3.21;100.00;98335.92;1740331;79;20979;-81
2022/11/22 04:23:18;;;;;;;13.32;7.50;;;;;;;-3.17;100.00;98337.02;1730058;82;20956;-74
2022/11/22 04:25:49;;;;;;;13.80;7.70;;;;;;;-3.16;100.00;98327.38;1727298;82;21137;-76
2022/11/22 04:28:20;;;;;;;11.00;7.12;;;;;;;-3.16;100.00;98333.28;1748730;82;20932;-74
2022/11/22 04:33:33;;;;;;;15.60;7.35;;;;;;;-3.21;100.00;98332.70;1743583;81;20982;-75
2022/11/22 04:36:00;;;;;;;13.18;7.40;;;;;;;-3.22;100.00;98324.37;1722360;81;21415;-77
2022/11/22 04:38:26;;;;;;;16.77;8.43;;;;;;;-3.20;100.00;98319.55;1724987;82;21542;-76
2022/11/22 04:40:54;;;;;;;14.95;7.55;;;;;;;-3.17;100.00;98328.97;1721469;81;20987;-74
2022/11/22 04:46:11;;;;;;;13.08;7.97;;;;;;;-3.16;100.00;98335.43;1724474;82;21450;-75
2022/11/22 04:48:38;;;;;;;13.65;7.87;;;;;;;-3.15;100.00;98337.05;1730467;81;20961;-74
2022/11/22 04:53:50;;;;;;;14.75;8.05;;;;;;;-3.14;100.00;98352.63;1768905;80;20881;-75
2022/11/22 04:56:17;;;;;;;16.37;9.08;;;;;;;-3.12;100.00;98355.86;1758543;80;21537;-76
2022/11/22 04:58:44;;;;;;;16.07;8.80;;;;;;;-3.08;100.00;98359.12;1773179;80;20924;-75
2022/11/22 05:01:10;;;;;;;16.55;9.45;;;;;;;-3.08;100.00;98355.63;1760972;80;21477;-77
2022/11/22 05:03:38;;;;;;;12.82;7.50;;;;;;;-3.07;100.00;98351.34;1755041;80;21789;-76
2022/11/22 05:06:05;;;;;;;14.60;7.85;;;;;;;-3.05;100.00;98365.32;1760450;80;21558;-79
2022/11/22 05:08:33;;;;;;;13.35;8.13;;;;;;;-3.04;100.00;98366.12;1761260;80;20947;-76
2022/11/22 05:11:01;;;;;;;15.13;8.30;;;;;;;-3.06;100.00;98366.39;1764483;80;21438;-74
2022/11/22 05:13:34;;;;;;;16.80;8.30;;;;;;;-3.04;100.00;98366.12;1764399;80;20892;-70
2022/11/22 05:16:04;;;;;;;14.20;8.60;;;;;;;-3.02;100.00;98362.13;1780232;80;21003;-75
2022/11/22 05:18:32;;;;;;;15.83;9.30;;;;;;;-3.00;100.00;98361.87;1753258;80;21014;-73
2022/11/22 05:21:09;;;;;;;16.32;9.23;;;;;;;-2.99;100.00;98371.55;1766377;79;21440;-75
2022/11/22 05:23:54;;;;;;;18.05;9.63;;;;;;;-2.96;100.00;98376.94;1792671;79;20844;-73
2022/11/22 05:26:32;;;;;;;17.77;9.10;;;;;;;-2.91;100.00;98380.47;1787816;79;20980;-74
2022/11/22 05:29:05;;;;;;;14.55;8.48;;;;;;;-2.90;100.00;98383.44;1761180;79;22224;-73
2022/11/22 05:31:34;;;;;;;14.05;8.30;;;;;;;-2.87;100.00;98384.23;1797357;79;20951;-73
2022/11/22 05:34:00;;;;;;;15.53;8.78;;;;;;;-2.86;100.00;98375.11;1794522;79;20965;-74
2022/11/22 05:36:29;;;;;;;15.13;8.28;;;;;;;-2.84;100.00;98381.03;1796015;79;20893;-73
2022/11/22 05:38:56;;;;;;;14.50;8.53;;;;;;;-2.82;100.00;98384.27;1743240;79;20912;-74
2022/11/22 05:41:23;;;;;;;15.50;9.28;;;;;;;-2.79;100.00;98393.69;1788418;79;21099;-74
2022/11/22 05:43:49;;;;;;;13.40;8.03;;;;;;;-2.76;100.00;98395.86;1801572;79;20904;-74
2022/11/22 05:46:19;;;;;;;13.43;8.18;;;;;;;-2.75;100.00;98405.02;1796650;79;21513;-73
2022/11/22 05:48:46;;;;;;;13.28;8.35;;;;;;;-2.72;100.00;98415.77;1797152;79;20983;-73
2022/11/22 05:51:15;;;;;;;16.23;8.28;;;;;;;-2.69;100.00;98421.98;1779686;79;21080;-73
2022/11/22 05:53:42;;;;;;;16.70;9.43;;;;;;;-2.67;100.00;98422.53;1796559;79;21129;-74
2022/11/22 05:56:16;;;;;;;18.75;9.28;;;;;;;-2.64;100.00;98422.55;1791227;79;20912;-75
2022/11/22 05:58:42;;;;;;;15.18;9.18;;;;;;;-2.62;100.00;98423.91;1798681;79;20959;-74
2022/11/22 06:01:15;;;;;;;14.35;8.18;;;;;;;-2.60;100.00;98427.16;1796153;79;21759;-74
2022/11/22 06:03:42;;;;;;;14.13;8.25;;;;;;;-2.58;100.00;98430.39;1775199;79;20967;-74
2022/11/22 06:06:09;;;;;;;15.10;8.55;;;;;;;-2.56;100.00;98431.48;1763089;80;21044;-74
2022/11/22 06:08:38;;;;;;;14.75;8.58;;;;;;;-2.53;100.00;98437.14;1780054;80;20936;-74
2022/11/22 06:11:21;;;;;;;13.83;8.53;;;;;;;-2.51;100.00;98429.64;1761779;80;21030;-74
2022/11/22 06:13:55;;;;;;;14.07;8.83;;;;;;;-2.47;100.00;98431.28;1750550;80;21396;-74
2022/11/22 06:16:23;;;;;;;17.77;10.23;;;;;;;-2.47;100.00;98440.68;1761140;80;21002;-74
2022/11/22 06:18:52;;;;;;;15.58;9.30;;;;;;;-2.44;100.00;98445.55;1747687;80;21536;-74
2022/11/22 06:21:25;;;;;;;14.47;8.73;;;;;;;-2.41;100.00;98442.34;1756043;80;21110;-74
2022/11/22 06:23:53;;;;;;;13.95;8.20;;;;;;;-2.38;100.00;98442.63;1749938;80;20997;-74
2022/11/22 06:26:21;;;;;;;15.30;9.23;;;;;;;-2.32;100.00;98440.79;1763732;80;21034;-73
2022/11/22 06:28:47;;;;;;;24.18;10.65;;;;;;;-2.28;100.00;98437.83;1767215;80;20931;-74
2022/11/22 06:31:16;;;;;;;18.07;10.35;;;;;;;-2.26;100.00;98433.00;1780289;80;21224;-74
2022/11/22 06:33:44;;;;;;;19.05;11.35;;;;;;;-2.23;100.00;98425.77;1780540;80;21518;-74
2022/11/22 06:36:20;;;;;;;18.55;11.08;;;;;;;-2.19;100.00;98425.52;1754094;80;21015;-73
2022/11/22 06:38:47;;;;;;;18.42;10.53;;;;;;;-2.19;100.00;98426.86;1767442;80;20967;-74
2022/11/22 06:41:20;;;;;;;18.10;10.32;;;;;;;-2.14;100.00;98434.15;1760514;80;20943;-74
2022/11/22 06:43:50;;;;;;;15.63;8.75;;;;;;;-2.15;100.00;98437.38;1760172;80;21238;-74
2022/11/22 06:46:19;;;;;;;15.30;9.25;;;;;;;-2.16;100.00;98438.98;1766193;80;20967;-74
2022/11/22 06:48:45;;;;;;;16.62;10.38;;;;;;;-2.17;100.00;98436.83;1750692;80;20998;-75
2022/11/22 06:51:16;;;;;;;26.27;15.93;;;;;;;-2.16;100.00;98443.82;1764201;80;21011;-72
2022/11/22 06:53:43;;;;;;;21.95;13.45;;;;;;;-2.13;100.00;98436.58;1761084;80;21145;-73
2022/11/22 06:56:18;;;;;;;16.93;9.90;;;;;;;-2.05;100.00;98444.16;1752527;80;21089;-78
2022/11/22 06:58:42;;;;;;;15.75;9.25;;;;;;;-2.00;100.00;98439.34;1748298;81;21255;-73
2022/11/22 07:01:24;;;;;;;17.00;10.08;;;;;;;-1.98;100.00;98440.42;1755607;81;21047;-73
2022/11/22 07:03:56;;;;;;;18.40;9.83;;;;;;;-1.94;100.00;98443.67;1769887;81;21464;-73
2022/11/22 07:06:20;;;;;;;13.62;8.03;;;;;;;-1.87;100.00;98449.63;1764733;80;20975;-73
2022/11/22 07:08:47;;;;;;;17.80;10.32;;;;;;;-1.87;100.00;98452.86;1757806;81;21537;-74
2022/11/22 07:11:20;;;;;;;16.50;10.13;;;;;;;-1.85;100.00;98450.18;1758005;80;20932;-73
2022/11/22 07:13:47;;;;;;;15.90;8.90;;;;;;;-1.85;100.00;98458.25;1743884;80;20996;-73
2022/11/22 07:16:19;;;;;;;16.75;9.10;;;;;;;-1.81;100.00;98462.58;1725278;82;20972;-73
2022/11/22 07:18:46;;;;;;;17.12;9.93;;;;;;;-1.77;100.00;98467.70;1745440;81;20936;-74
2022/11/22 07:21:19;;;;;;;13.28;8.80;;;;;;;-1.74;100.00;98477.95;1758107;80;21098;-73
2022/11/22 07:23:47;;;;;;;15.85;9.23;;;;;;;-1.72;100.00;98473.89;1755065;80;21728;-75
2022/11/22 07:26:14;;;;;;;16.97;10.15;;;;;;;-1.69;100.00;98472.56;1748255;80;21014;-75
2022/11/22 07:28:41;;;;;;;14.68;8.53;;;;;;;-1.66;100.00;98470.16;1752013;80;21032;-75
2022/11/22 07:31:09;;;;;;;17.87;8.85;;;;;;;-1.64;100.00;98472.58;1756411;80;21019;-74
2022/11/22 07:33:37;;;;;;;14.85;8.85;;;;;;;-1.64;100.00;98469.89;1720728;81;21023;-73
2022/11/22 07:36:06;;;;;;;13.48;8.18;;;;;;;-1.63;100.00;98474.73;1703633;81;20979;-74
2022/11/22 07:38:33;;;;;;;14.30;8.35;;;;;;;-1.62;100.00;98477.17;1688474;83;20955;-74
2022/11/22 07:41:00;;;;;;;14.65;8.93;;;;;;;-1.57;100.00;98476.37;1692866;84;21015;-71
2022/11/22 07:43:27;;;;;;;13.35;7.80;;;;;;;-1.56;100.00;98467.23;1739804;80;21108;-72
2022/11/22 07:45:59;;;;;;;15.40;9.40;;;;;;;-1.51;100.00;98470.75;1691739;82;21208;-72
2022/11/22 07:48:26;;;;;;;14.98;8.35;;;;;;;-1.45;100.00;98465.66;1749843;80;20966;-72
2022/11/22 07:50:53;;;;;;;16.75;9.33;;;;;;;-1.38;100.00;98467.58;1763729;79;21554;-72
2022/11/22 07:53:20;;;;;;;11.05;7.60;;;;;;;-1.39;100.00;98475.91;1715183;81;21063;-71
2022/11/22 07:55:47;;;;;;;11.50;7.67;;;;;;;-1.42;100.00;98478.59;1726273;82;21059;-72
2022/11/22 07:58:14;;;;;;;14.35;8.03;;;;;;;-1.45;100.00;98472.39;1732705;82;21550;-72
2022/11/22 08:00:40;;;;;;;22.27;11.38;;;;;;;-1.46;100.00;98480.73;1697290;83;21428;-72
2022/11/22 08:03:07;;;;;;;14.55;8.40;;;;;;;-1.47;100.00;98483.96;1697886;83;21000;-74
2022/11/22 08:05:34;;;;;;;13.08;8.35;;;;;;;-1.45;100.00;98480.47;1711340;83;21083;-70
2022/11/22 08:08:00;;;;;;;13.15;7.92;;;;;;;-1.42;100.00;98485.86;1700631;83;21171;-73
2022/11/22 08:10:27;;;;;;;14.30;8.20;;;;;;;-1.41;100.00;98488.83;1696557;83;21568;-72
2022/11/22 08:12:59;;;;;;;13.60;7.85;;;;;;;-1.36;100.00;98488.31;1729930;81;20979;-72
2022/11/22 08:15:26;;;;;;;12.37;7.60;;;;;;;-1.28;100.00;98486.19;1717774;81;21541;-72
2022/11/22 08:17:53;;;;;;;14.38;7.30;;;;;;;-1.25;100.00;98489.70;1713724;82;21055;-72
2022/11/22 08:20:20;;;;;;;14.68;8.13;;;;;;;-1.27;100.00;98498.58;1689878;81;21145;-72
2022/11/22 08:22:48;;;;;;;14.15;8.83;;;;;;;-1.29;100.00;98496.68;1730075;82;21155;-73
2022/11/22 08:25:15;;;;;;;16.12;8.70;;;;;;;-1.24;100.00;98504.78;1733545;82;21550;-73
2022/11/22 08:27:42;;;;;;;13.62;8.25;;;;;;;-1.23;100.00;98501.02;1751933;81;21083;-72
2022/11/22 08:30:10;;;;;;;11.93;7.92;;;;;;;-1.23;100.00;98499.66;1748741;80;20925;-73
2022/11/22 08:32:37;;;;;;;13.85;8.70;;;;;;;-1.26;100.00;98507.73;1741992;80;21114;-77
2022/11/22 08:35:06;;;;;;;14.90;8.25;;;;;;;-1.25;100.00;98508.01;1746990;80;21112;-71
2022/11/22 08:37:33;;;;;;;15.70;8.58;;;;;;;-1.22;100.00;98498.05;1741201;80;21529;-72
2022/11/22 08:40:00;;;;;;;12.50;7.72;;;;;;;-1.11;100.00;98509.64;1760325;80;21059;-71
2022/11/22 08:42:28;;;;;;;12.00;7.72;;;;;;;-1.02;100.00;98504.82;1770811;80;20903;-70
2022/11/22 08:44:54;;;;;;;12.40;7.58;;;;;;;-1.00;100.00;98501.86;1771817;80;20947;-73
2022/11/22 08:47:21;;;;;;;14.35;8.53;;;;;;;-1.01;100.00;98502.94;1772625;80;21815;-74
2022/11/22 08:49:47;;;;;;;12.65;7.80;;;;;;;-1.03;100.00;98494.31;1767086;80;20994;-71
2022/11/22 08:52:14;;;;;;;13.48;8.23;;;;;;;-1.01;100.00;98501.59;1751603;80;21015;-74
2022/11/22 08:54:41;;;;;;;16.23;8.48;;;;;;;-1.01;100.00;98506.98;1707753;83;21010;-75
2022/11/22 08:57:08;;;;;;;15.05;8.98;;;;;;;-1.03;100.00;98504.55;1733578;82;21003;-75
2022/11/22 08:59:36;;;;;;;15.83;8.63;;;;;;;-1.01;100.00;98508.33;1731830;81;21148;-74
2022/11/22 09:02:03;;;;;;;16.12;9.28;;;;;;;-1.02;100.00;98502.66;1774845;80;21509;-76
2022/11/22 09:04:31;;;;;;;17.05;9.93;;;;;;;-1.03;100.00;98501.05;1736267;81;21264;-74
2022/11/22 09:06:59;;;;;;;14.35;8.20;;;;;;;-1.05;100.00;98501.84;1740696;81;21053;-73
2022/11/22 09:09:26;;;;;;;16.73;9.90;;;;;;;-1.04;100.00;98502.93;1741441;82;21029;-73
2022/11/22 09:11:53;;;;;;;17.02;9.43;;;;;;;-1.03;100.00;98501.05;1731743;81;21161;-73
2022/11/22 09:14:20;;;;;;;15.93;9.23;;;;;;;-1.02;100.00;98499.97;1735987;82;21020;-73
2022/11/22 09:16:46;;;;;;;13.72;8.43;;;;;;;-1.00;100.00;98499.16;1729811;82;20990;-76
2022/11/22 09:19:13;;;;;;;16.90;9.13;;;;;;;-1.00;100.00;98505.91;1733167;82;21075;-71
2022/11/22 09:21:40;;;;;;;15.65;8.75;;;;;;;-0.98;100.00;98508.33;1702936;82;21030;-71
2022/11/22 09:24:07;;;;;;;15.28;8.88;;;;;;;-0.99;100.00;98503.48;1698804;83;21033;-72
2022/11/22 09:26:35;;;;;;;14.80;9.08;;;;;;;-0.96;100.00;98505.64;1743122;80;21646;-75
2022/11/22 09:29:02;;;;;;;15.40;9.40;;;;;;;-0.92;100.00;98508.08;1750506;80;20988;-73
2022/11/22 09:31:29;;;;;;;14.63;8.15;;;;;;;-0.93;100.00;98518.58;1768500;80;21083;-75
2022/11/22 09:33:56;;;;;;;14.45;8.18;;;;;;;-0.94;100.00;98511.58;1735800;80;21110;-74
2022/11/22 09:36:27;;;;;;;19.23;10.40;;;;;;;-0.98;100.00;98522.61;1746800;80;21085;-76
2022/11/22 09:38:56;;;;;;;14.50;8.73;;;;;;;-1.02;100.00;98516.13;1735954;80;21037;-74
2022/11/22 09:41:40;;;;;;;14.85;8.45;;;;;;;-1.04;100.00;98521.78;1730606;80;21084;-77
2022/11/22 09:44:52;;;;;;;15.80;9.15;;;;;;;-1.03;100.00;98526.09;1728411;80;21519;-73
2022/11/22 09:47:58;;;;;;;15.83;10.25;;;;;;;-1.00;100.00;98532.30;1753419;80;21126;-74
2022/11/22 09:50:43;;;;;;;17.15;10.43;;;;;;;-0.91;100.00;98542.03;1764082;80;21067;-74
2022/11/22 09:53:24;;;;;;;16.12;9.58;;;;;;;-0.86;100.00;98546.08;1755050;80;20979;-74
2022/11/22 09:55:53;;;;;;;16.00;9.10;;;;;;;-0.84;100.00;98545.28;1764072;80;20903;-73
2022/11/22 09:58:37;;;;;;;15.45;10.00;;;;;;;-0.82;100.00;98551.75;1715457;80;21078;-73
2022/11/22 10:01:37;;;;;;;15.78;9.53;;;;;;;-0.85;100.00;98553.63;1763423;80;20984;-73
2022/11/22 10:04:20;;;;;;;15.08;9.15;;;;;;;-0.87;100.00;98559.28;1734274;81;21244;-74
2022/11/22 10:06:59;;;;;;;17.80;10.48;;;;;;;-0.82;100.00;98553.91;1735166;81;21494;-74
2022/11/22 10:09:50;;;;;;;19.00;10.40;;;;;;;-0.79;100.00;98552.56;1749399;81;20974;-72
2022/11/22 10:12:26;;;;;;;19.07;9.50;;;;;;;-0.82;100.00;98557.95;1738088;81;21059;-72
2022/11/22 10:15:20;;;;;;;16.45;9.75;;;;;;;-0.82;100.00;98547.70;1732761;81;21041;-71
2022/11/22 10:18:10;;;;;;;14.28;9.15;;;;;;;-0.87;100.00;98545.81;1712776;82;21646;-71
2022/11/22 10:20:40;;;;;;;14.55;9.15;;;;;;;-0.90;100.00;98541.48;1674075;81;21076;-73
2022/11/22 10:23:12;;;;;;;13.90;8.20;;;;;;;-0.91;100.00;98542.56;1714875;81;21081;-74
2022/11/22 10:25:44;;;;;;;16.42;10.10;;;;;;;-0.93;100.00;98540.67;1733171;81;21069;-74
2022/11/22 10:28:18;;;;;;;14.70;8.83;;;;;;;-0.92;100.00;98543.64;1738773;81;21009;-73
2022/11/22 10:30:50;;;;;;;16.12;9.43;;;;;;;-0.97;100.00;98543.09;1733298;81;21122;-72
2022/11/22 10:33:34;;;;;;;18.70;9.35;;;;;;;-1.03;100.00;98541.45;1725915;81;21836;-74
2022/11/22 10:36:25;;;;;;;17.27;9.38;;;;;;;-1.07;100.00;98543.86;1726039;82;21048;-71
2022/11/22 10:39:22;;;;;;;15.80;8.80;;;;;;;-1.08;100.00;98546.28;1678103;83;21123;-72
2022/11/22 10:42:15;;;;;;;18.77;9.93;;;;;;;-1.10;100.00;98540.89;1691249;83;21019;-73
2022/11/22 10:45:14;;;;;;;18.57;9.73;;;;;;;-1.16;100.00;98544.66;1611903;84;21762;-73
2022/11/22 10:47:52;;;;;;;15.65;7.92;;;;;;;-1.15;100.00;98546.25;1663002;84;21013;-72
2022/11/22 10:50:36;;;;;;;15.98;9.15;;;;;;;-1.12;100.00;98550.58;1747094;80;21033;-73
2022/11/22 10:53:20;;;;;;;16.62;9.13;;;;;;;-1.09;100.00;98553.28;1745706;80;21090;-73
2022/11/22 10:56:19;;;;;;;14.75;8.60;;;;;;;-1.07;100.00;98560.56;1738710;80;21039;-74
2022/11/22 10:59:10;;;;;;;17.00;9.55;;;;;;;-1.05;100.00;98562.45;1733381;82;21267;-71
2022/11/22 11:02:15;;;;;;;19.35;11.12;;;;;;;-1.00;100.00;98559.78;1759985;79;21015;-71
2022/11/22 11:04:41;;;;;;;18.73;10.48;;;;;;;-1.01;100.00;98565.70;1731501;81;20984;-86
2022/11/22 11:07:15;;;;;;;19.05;9.80;;;;;;;-1.00;100.00;98567.86;1745092;80;21344;-73
2022/11/22 11:09:47;;;;;;;18.57;10.38;;;;;;;-1.01;100.00;98574.32;1740209;80;21082;-71
2022/11/22 11:12:44;;;;;;;21.73;12.70;;;;;;;-1.04;100.00;98574.84;1744989;81;21223;-73
2022/11/22 11:15:24;;;;;;;20.12;11.50;;;;;;;-1.12;100.00;98574.81;1746806;81;21543;-72
2022/11/22 11:17:56;;;;;;;22.32;11.78;;;;;;;-1.18;100.00;98575.09;1753029;80;21140;-76
2022/11/22 11:20:36;;;;;;;21.35;11.35;;;;;;;-1.19;100.00;98584.24;1750609;80;21027;-75
2022/11/22 11:23:02;;;;;;;23.60;12.43;;;;;;;-1.21;100.00;98586.39;1760262;80;20991;-72
2022/11/22 11:25:39;;;;;;;18.12;10.45;;;;;;;-1.25;100.00;98586.09;1764473;80;21910;-69
2022/11/22 11:28:25;;;;;;;18.05;9.65;;;;;;;-1.23;100.00;98584.49;1688514;82;21017;-71
2022/11/22 11:31:07;;;;;;;19.20;9.50;;;;;;;-1.22;100.00;98595.00;1666630;85;21043;-71
2022/11/22 11:33:37;;;;;;;17.53;9.30;;;;;;;-1.23;100.00;98597.42;1683370;84;21076;-72
2022/11/22 11:36:17;;;;;;;17.98;9.85;;;;;;;-1.24;100.00;98599.84;1672240;83;21254;-72
2022/11/22 11:38:56;;;;;;;15.78;8.45;;;;;;;-1.24;100.00;98604.41;1690660;83;21112;-80
2022/11/22 11:41:31;;;;;;;18.90;9.65;;;;;;;-1.24;100.00;98605.22;1655317;84;21042;-81
2022/11/22 11:44:03;;;;;;;16.37;8.70;;;;;;;-1.20;100.00;98605.52;1734809;81;21514;-77